createdAt,value
2019-04-07T00:02:08.619Z,20.17
2019-04-07T00:07:04.794Z,20.43
2019-04-07T00:12:00.743Z,19.80
2019-04-07T00:16:56.948Z,19.90
2019-04-07T00:21:53.908Z,20.33
2019-04-07T00:26:49.923Z,19.93
2019-04-07T00:31:45.887Z,19.90
2019-04-07T00:36:42.006Z,19.93
2019-04-07T00:41:38.067Z,18.80
2019-04-07T00:46:37.626Z,18.00
2019-04-07T00:51:34.197Z,20.03
2019-04-07T00:56:30.101Z,19.83
2019-04-07T01:01:26.133Z,18.90
2019-04-07T01:06:22.042Z,20.43
2019-04-07T01:11:19.125Z,19.43
2019-04-07T01:16:14.946Z,20.27
2019-04-07T01:21:10.798Z,20.80
2019-04-07T01:26:07.407Z,18.33
2019-04-07T01:31:03.498Z,20.07
2019-04-07T01:35:59.824Z,19.67
2019-04-07T01:41:12.318Z,18.80
2019-04-07T01:46:24.234Z,19.50
2019-04-07T01:51:48.781Z,20.70
2019-04-07T01:56:55.279Z,21.03
2019-04-07T02:02:13.717Z,22.23
2019-04-07T02:07:34.771Z,22.30
2019-04-07T02:12:48.961Z,21.50
2019-04-07T02:18:00.907Z,23.80
2019-04-07T02:23:16.290Z,22.93
2019-04-07T02:28:30.778Z,26.10
2019-04-07T02:33:37.146Z,25.27
2019-04-07T02:38:47.759Z,26.33
2019-04-07T02:44:05.565Z,24.73
2019-04-07T02:49:10.791Z,25.27
2019-04-07T02:54:38.063Z,22.13
2019-04-07T02:59:44.284Z,23.77
2019-04-07T03:04:59.937Z,24.10
2019-04-07T03:10:12.982Z,25.87
2019-04-07T03:15:27.774Z,25.60
2019-04-07T03:20:41.461Z,24.40
2019-04-07T03:26:04.454Z,24.57
2019-04-07T03:31:12.704Z,24.10
2019-04-07T03:37:08.838Z,25.53
2019-04-07T03:41:52.660Z,24.07
2019-04-07T03:47:14.713Z,23.87
2019-04-07T03:52:38.299Z,24.50
2019-04-07T03:57:41.693Z,38.93
2019-04-07T04:02:52.849Z,24.97
2019-04-07T04:08:07.498Z,26.57
2019-04-07T04:13:16.578Z,26.43
2019-04-07T04:18:12.499Z,25.17
2019-04-07T04:23:08.991Z,26.00
2019-04-07T04:28:05.058Z,25.77
2019-04-07T04:33:01.909Z,25.20
2019-04-07T04:37:57.951Z,22.23
2019-04-07T04:42:54.825Z,23.33
2019-04-07T04:47:51.593Z,22.23
2019-04-07T04:52:47.630Z,22.57
2019-04-07T04:57:43.436Z,20.60
2019-04-07T05:02:39.494Z,19.87
2019-04-07T05:07:47.987Z,18.97
2019-04-07T05:12:33.552Z,19.37
2019-04-07T05:17:29.445Z,18.57
2019-04-07T05:22:25.708Z,18.33
2019-04-07T05:27:21.817Z,18.67
2019-04-07T05:32:17.749Z,17.47
2019-04-07T05:37:14.095Z,20.93
2019-04-07T05:42:09.969Z,21.87
2019-04-07T05:47:06.097Z,22.20
2019-04-07T05:52:05.520Z,20.70
2019-04-07T05:57:01.526Z,23.37
2019-04-07T06:02:00.722Z,22.93
2019-04-07T06:06:56.310Z,22.53
2019-04-07T06:11:52.404Z,23.43
2019-04-07T06:16:51.799Z,22.70
2019-04-07T06:21:47.278Z,22.47
2019-04-07T06:26:48.158Z,23.50
2019-04-07T06:31:42.433Z,22.27
2019-04-07T06:36:38.667Z,19.90
2019-04-07T06:41:34.719Z,20.77
2019-04-07T06:46:49.395Z,20.53
2019-04-07T06:52:00.785Z,19.83
2019-04-07T06:57:17.518Z,19.13
2019-04-07T07:02:27.019Z,19.10
2019-04-07T07:07:49.043Z,18.20
2019-04-07T07:13:09.329Z,18.00
2019-04-07T07:18:22.145Z,16.20
2019-04-07T07:23:24.090Z,16.40
2019-04-07T07:28:21.108Z,13.73
2019-04-07T07:33:17.864Z,13.80
2019-04-07T07:38:13.779Z,12.70
2019-04-07T07:43:17.641Z,10.57
2019-04-07T07:48:13.533Z,8.90
2019-04-07T07:53:09.451Z,9.07
2019-04-07T07:58:05.463Z,9.60
2019-04-07T08:03:01.464Z,8.60
2019-04-07T08:07:57.276Z,8.37
2019-04-07T08:12:53.205Z,8.43
2019-04-07T08:17:49.207Z,7.40
2019-04-07T08:22:45.115Z,8.10
2019-04-07T08:27:40.992Z,6.60
2019-04-07T08:32:36.911Z,6.67
2019-04-07T08:37:53.426Z,7.13
2019-04-07T08:42:48.341Z,6.10
2019-04-07T08:47:47.379Z,6.20
2019-04-07T08:52:43.661Z,6.53
2019-04-07T08:57:40.096Z,6.40
2019-04-07T09:02:39.126Z,5.63
2019-04-07T09:07:47.172Z,5.37
2019-04-07T09:12:44.010Z,5.60
2019-04-07T09:17:46.633Z,5.33
2019-04-07T09:23:01.702Z,5.90
2019-04-07T09:28:23.945Z,5.30
2019-04-07T09:33:42.161Z,4.80
2019-04-07T09:38:50.344Z,4.80
2019-04-07T09:43:56.017Z,5.43
2019-04-07T09:49:10.711Z,5.60
2019-04-07T09:54:37.626Z,6.57
2019-04-07T09:59:54.306Z,7.37
2019-04-07T10:05:07.025Z,6.27
2019-04-07T10:10:20.446Z,7.57
2019-04-07T10:15:37.986Z,8.03
2019-04-07T10:20:52.670Z,7.60
2019-04-07T10:25:56.194Z,8.53
2019-04-07T10:31:02.420Z,8.80
2019-04-07T10:36:21.625Z,9.30
2019-04-07T10:41:35.010Z,9.60
2019-04-07T10:46:39.514Z,11.00
2019-04-07T10:51:53.737Z,10.47
2019-04-07T10:57:17.813Z,9.83
2019-04-07T11:02:55.431Z,10.37
2019-04-07T11:08:16.664Z,10.53
2019-04-07T11:13:32.566Z,11.70
2019-04-07T11:18:45.949Z,12.23
2019-04-07T11:24:01.220Z,11.97
2019-04-07T11:29:07.512Z,13.10
2019-04-07T11:34:38.984Z,10.53
2019-04-07T11:39:49.921Z,10.57
2019-04-07T11:45:03.707Z,10.07
2019-04-07T11:50:15.217Z,9.90
2019-04-07T11:55:33.408Z,10.33
2019-04-07T12:00:48.846Z,10.97
2019-04-07T12:05:53.869Z,10.90
2019-04-07T12:11:03.418Z,10.67
2019-04-07T12:16:21.984Z,10.67
2019-04-07T12:21:28.724Z,9.73
2019-04-07T12:26:42.126Z,11.03
2019-04-07T12:31:48.455Z,11.17
2019-04-07T12:37:15.557Z,11.03
2019-04-07T12:42:43.146Z,11.50
2019-04-07T12:48:01.475Z,12.53
2019-04-07T12:53:16.205Z,11.97
2019-04-07T12:58:46.016Z,11.60
2019-04-07T13:03:47.697Z,10.93
2019-04-07T13:09:17.117Z,10.73
2019-04-07T13:14:30.757Z,10.60
2019-04-07T13:19:34.276Z,11.13
2019-04-07T13:24:57.841Z,8.87
2019-04-07T13:30:04.046Z,9.80
2019-04-07T13:35:27.881Z,9.63
2019-04-07T13:40:44.097Z,8.80
2019-04-07T13:46:01.349Z,8.23
2019-04-07T13:51:19.051Z,7.37
2019-04-07T13:56:21.237Z,7.90
2019-04-07T14:01:22.832Z,8.10
2019-04-07T14:06:27.209Z,8.03
2019-04-07T14:11:56.555Z,8.07
2019-04-07T14:17:05.050Z,8.60
2019-04-07T14:22:25.644Z,7.30
2019-04-07T14:27:42.657Z,7.53
2019-04-07T14:33:03.496Z,8.73
2019-04-07T14:38:17.138Z,8.50
2019-04-07T14:43:28.667Z,7.87
2019-04-07T14:48:37.794Z,8.30
2019-04-07T14:53:51.567Z,7.13
2019-04-07T14:59:00.416Z,7.93
2019-04-07T15:04:02.263Z,8.03
2019-04-07T15:09:06.771Z,7.03
2019-04-07T15:14:02.818Z,7.07
2019-04-07T15:19:01.225Z,7.03
2019-04-07T15:23:57.336Z,7.47
2019-04-07T15:28:57.104Z,7.73
2019-04-07T15:34:42.258Z,6.87
2019-04-07T15:39:45.874Z,6.40
2019-04-07T15:44:42.750Z,5.97
2019-04-07T15:49:45.357Z,6.07
2019-04-07T15:54:42.252Z,5.63
2019-04-07T15:59:42.382Z,5.20
2019-04-07T16:04:38.780Z,5.63
2019-04-07T16:09:45.184Z,5.47
2019-04-07T16:14:32.901Z,5.30
2019-04-07T16:19:39.679Z,5.77
2019-04-07T16:24:31.062Z,6.47
2019-04-07T16:29:28.507Z,6.70
2019-04-07T16:34:24.630Z,6.43
2019-04-07T16:39:21.982Z,6.73
2019-04-07T16:44:17.805Z,6.93
2019-04-07T16:49:15.586Z,6.73
2019-04-07T16:54:11.765Z,6.10
2019-04-07T16:59:09.764Z,6.03
2019-04-07T17:04:06.371Z,6.13
2019-04-07T17:09:05.491Z,5.83
2019-04-07T17:14:02.906Z,5.83
2019-04-07T17:18:59.794Z,5.77
2019-04-07T18:12:04.540Z,4.30
2019-04-07T18:17:16.285Z,4.20
2019-04-07T18:22:37.003Z,4.93
2019-04-07T18:27:47.446Z,4.20
2019-04-07T18:32:55.706Z,3.93
2019-04-07T18:38:14.512Z,4.23
2019-04-07T18:43:22.015Z,4.00
2019-04-07T18:48:36.688Z,3.73
2019-04-07T18:54:02.659Z,3.87
2019-04-07T18:59:33.549Z,3.57
2019-04-07T19:11:31.893Z,3.83
2019-04-07T19:23:04.333Z,3.70
2019-04-07T19:28:21.912Z,3.37
2019-04-07T19:33:55.948Z,3.80
2019-04-07T19:39:23.535Z,3.33
2019-04-07T19:44:35.808Z,3.27
2019-04-07T19:49:41.602Z,3.50
2019-04-07T19:55:12.003Z,3.30
2019-04-07T20:00:32.089Z,3.33
2019-04-07T20:05:51.670Z,3.10
2019-04-07T20:11:27.699Z,3.43
2019-04-07T20:16:36.337Z,3.20
2019-04-07T20:21:58.187Z,2.70
2019-04-07T20:27:11.893Z,2.80
2019-04-07T20:32:26.218Z,2.87
2019-04-07T20:37:48.817Z,2.60
2019-04-07T20:43:14.431Z,2.77
2019-04-07T20:48:37.288Z,3.17
2019-04-07T20:53:53.655Z,2.77
2019-04-07T20:59:14.010Z,3.03
2019-04-07T21:04:21.691Z,2.80
2019-04-07T21:09:33.376Z,2.83
2019-04-07T21:14:43.147Z,2.87
2019-04-07T21:20:02.014Z,3.00
2019-04-07T21:25:04.394Z,2.80
2019-04-07T21:30:18.830Z,3.00
2019-04-07T21:35:35.324Z,3.30
2019-04-07T21:40:42.248Z,3.60
2019-04-07T21:46:00.490Z,3.50
2019-04-07T21:51:15.358Z,3.43
2019-04-07T21:56:20.142Z,3.43
2019-04-07T22:01:46.485Z,3.60
2019-04-07T22:07:11.169Z,3.23
2019-04-07T22:12:06.963Z,3.30
2019-04-07T22:17:03.013Z,3.30
2019-04-07T22:21:58.849Z,3.53
2019-04-07T22:26:55.122Z,3.40
2019-04-07T22:31:53.596Z,3.47
2019-04-07T22:36:49.688Z,2.80
2019-04-07T22:41:46.358Z,2.67
2019-04-07T22:46:42.088Z,3.20
2019-04-07T22:51:38.165Z,2.93
2019-04-07T22:56:36.611Z,2.93
2019-04-07T23:01:31.520Z,2.63
2019-04-07T23:06:27.292Z,2.87
2019-04-07T23:11:23.679Z,3.30
2019-04-07T23:16:20.360Z,3.20
2019-04-07T23:21:17.125Z,3.33
2019-04-07T23:26:13.802Z,3.07
2019-04-07T23:31:09.716Z,2.90
2019-04-07T23:36:05.933Z,3.50
2019-04-07T23:41:01.636Z,3.40
2019-04-07T23:45:58.023Z,3.13
2019-04-07T23:50:54.085Z,3.10
2019-04-07T23:55:49.911Z,3.33
